Terminal Aerodrome Forecast
Issued by NWS

Home | Current Version | Previous Version | Text Only | Print | Product List | Glossary Off
Versions: 1 2 3 4 5 6 7 8 9 10 11 12 13 14 15 16 17 18 19 20 21 22

170
FTUS43 KICT 210524
TAFRSL
TAF
KRSL 210524Z 2106/2206 36009KT P6SM SCT120
     FM210900 36012KT P6SM BKN120
     FM211700 05008KT P6SM SCT080
     FM212000 06008KT P6SM -SN BKN060
     FM220000 07008KT 5SM -SN BR BKN030
     FM220300 08008KT P6SM BKN030=

USA.gov is the U.S. government's official web portal to all federal, state and local government web resources and services.